| Date | Time | Temp. (oF) | Dew Point (oF) | Rel. Hum. (%) | Press. (in.) | Wind Dir. | Wind Speed (mph) | Hourly Rainfall (in.) |
|
|---|---|---|---|---|---|---|---|---|---|
| 1 | 12/08 | 00:00 | 20 | 14 | 79 | 30.44 | ESE | 0 | 0.00 |
| 2 | 12/07 | 23:00 | 21 | 14 | 76 | 30.45 | ESE | 1 | 0.00 |
| 3 | 12/07 | 22:00 | 23 | 14 | 70 | 30.44 | NW | 2 | 0.00 |
| 4 | 12/07 | 21:00 | 25 | 13 | 61 | 30.44 | NW | 2 | 0.00 |
| 5 | 12/07 | 20:00 | 26 | 13 | 59 | 30.44 | NW | 2 | 0.00 |
| 6 | 12/07 | 19:00 | 27 | 14 | 58 | 30.43 | NW | 2 | 0.00 |
| 7 | 12/07 | 18:00 | 28 | 13 | 55 | 30.42 | NW | 2 | 0.00 |
| 8 | 12/07 | 17:00 | 30 | 14 | 52 | 30.40 | NW | 7 | 0.00 |
| 9 | 12/07 | 16:00 | 32 | 14 | 49 | 30.38 | NW | 7 | 0.00 |
| 10 | 12/07 | 15:00 | 33 | 14 | 47 | 30.36 | NW | 10 | 0.00 |
| 11 | 12/07 | 14:00 | 33 | 16 | 50 | 30.36 | NW | 9 | 0.00 |
| 12 | 12/07 | 13:00 | 36 | 16 | 45 | 30.36 | NNW | 11 | 0.00 |
| 13 | 12/07 | 12:00 | 34 | 20 | 58 | 30.38 | NW | 12 | 0.00 |
| 14 | 12/07 | 11:00 | 33 | 19 | 57 | 30.40 | NW | 7 | 0.00 |
| 15 | 12/07 | 10:00 | 33 | 18 | 56 | 30.41 | W | 4 | 0.00 |
| 16 | 12/07 | 09:00 | 31 | 19 | 62 | 30.38 | W | 8 | 0.00 |
| 17 | 12/07 | 08:00 | 28 | 18 | 66 | 30.36 | W | 5 | 0.00 |
| 18 | 12/07 | 07:00 | 28 | 17 | 64 | 30.34 | NW | 5 | 0.00 |
| 19 | 12/07 | 06:00 | 29 | 17 | 62 | 30.31 | WNW | 5 | 0.00 |
| 20 | 12/07 | 05:00 | 31 | 20 | 64 | 30.28 | WNW | 18 | 0.00 |
| 21 | 12/07 | 04:00 | 33 | 23 | 68 | 30.25 | W | 8 | 0.00 |
| 22 | 12/07 | 03:00 | 31 | 23 | 72 | 30.23 | WNW | 5 | 0.00 |
| 23 | 12/07 | 02:00 | 33 | 22 | 66 | 30.20 | SSW | 2 | 0.00 |
| 24 | 12/07 | 01:00 | 34 | 22 | 62 | 30.18 | SW | 4 | 0.00 |